Time;durP1;ratioP1;P1;durP2;ratioP2;P2;SDS_P1;SDS_P2;PMS_P1;PMS_P2;Temp;Humidity;BMP_temperature;BMP_pressure;BME280_temperature;BME280_humidity;BME280_pressure;Samples;Min_cycle;Max_cycle;Signal;HPM_P1;HPM_P2
2021/03/05 00:00:20;;;;;;;7.45;6.05;;;;;;;8.04;70.95;96574.03;4914046;29;20048;-82
2021/03/05 00:02:51;;;;;;;7.45;6.10;;;;;;;8.05;70.75;96570.50;4913591;29;20079;-81
2021/03/05 00:05:31;;;;;;;7.90;6.68;;;;;;;8.04;70.95;96571.44;4902592;29;20504;-77
2021/03/05 00:07:57;;;;;;;8.40;6.38;;;;;;;8.04;70.95;96569.66;4902368;29;20072;-77
2021/03/05 00:10:26;;;;;;;8.48;7.00;;;;;;;8.04;71.23;96566.25;4900821;29;20435;-77
2021/03/05 00:12:53;;;;;;;7.95;6.63;;;;;;;8.01;70.99;96564.81;4901672;29;20056;-78
2021/03/05 00:15:22;;;;;;;10.02;7.32;;;;;;;8.00;71.55;96567.56;4901801;29;20052;-77
2021/03/05 00:17:50;;;;;;;8.48;7.47;;;;;;;7.98;71.30;96564.31;4907424;29;20048;-77
2021/03/05 00:20:20;;;;;;;10.60;6.88;;;;;;;7.94;71.34;96568.25;4905066;29;20500;-80
2021/03/05 00:22:47;;;;;;;11.88;8.27;;;;;;;7.95;71.68;96569.84;4903649;29;20048;-76
2021/03/05 00:25:14;;;;;;;10.95;8.23;;;;;;;7.93;71.75;96569.22;4903968;29;20059;-80
2021/03/05 00:27:40;;;;;;;12.73;8.63;;;;;;;7.92;71.54;96565.81;4904732;29;20063;-77
2021/03/05 00:30:08;;;;;;;13.00;9.60;;;;;;;7.89;71.81;96566.13;4906309;29;20067;-77
2021/03/05 00:32:36;;;;;;;15.93;10.63;;;;;;;7.86;71.94;96571.66;4906091;29;20052;-78
2021/03/05 00:35:04;;;;;;;17.05;11.68;;;;;;;7.85;71.95;96570.06;4907532;29;20081;-76
2021/03/05 00:37:31;;;;;;;16.35;11.63;;;;;;;7.85;71.86;96564.84;4907231;29;20192;-82
2021/03/05 00:39:59;;;;;;;15.88;12.32;;;;;;;7.85;71.87;96575.25;4904108;29;20084;-79
2021/03/05 00:42:26;;;;;;;14.80;11.18;;;;;;;7.86;71.88;96570.84;4901881;29;20048;-79
2021/03/05 00:44:53;;;;;;;17.38;12.00;;;;;;;7.86;72.40;96581.25;4902062;29;20512;-79
2021/03/05 00:47:19;;;;;;;16.45;12.75;;;;;;;7.86;72.30;96581.25;4902335;29;20064;-79
2021/03/05 00:49:46;;;;;;;16.65;11.43;;;;;;;7.84;72.22;96584.00;4901475;29;20053;-79
2021/03/05 00:52:13;;;;;;;16.50;12.50;;;;;;;7.83;72.70;96585.78;4901877;29;20063;-78
2021/03/05 00:54:39;;;;;;;17.50;11.52;;;;;;;7.83;72.81;96572.81;4901545;29;20053;-77
2021/03/05 00:57:07;;;;;;;15.48;11.93;;;;;;;7.84;72.79;96584.78;4901917;29;20063;-81
2021/03/05 00:59:34;;;;;;;17.02;12.20;;;;;;;7.86;72.43;96576.03;4901441;29;20056;-79
2021/03/05 01:02:01;;;;;;;15.82;12.07;;;;;;;7.85;72.55;96585.63;4901077;29;20078;-80
2021/03/05 01:04:27;;;;;;;16.70;12.13;;;;;;;7.86;72.75;96581.25;4900877;29;20084;-78
2021/03/05 01:06:55;;;;;;;15.60;11.55;;;;;;;7.86;72.71;96583.84;4901512;29;20053;-77
2021/03/05 01:09:22;;;;;;;15.15;11.55;;;;;;;7.86;72.48;96589.03;4901330;29;20060;-77
2021/03/05 01:11:48;;;;;;;15.05;11.98;;;;;;;7.87;73.00;96590.63;4900998;29;20053;-80
2021/03/05 01:14:16;;;;;;;16.38;11.70;;;;;;;7.86;72.61;96589.03;4900898;29;20518;-77
2021/03/05 01:16:42;;;;;;;18.45;11.38;;;;;;;7.83;72.57;96588.38;4901183;29;20067;-79
2021/03/05 01:19:12;;;;;;;14.18;10.48;;;;;;;7.82;72.67;96591.94;4901506;29;20057;-80
2021/03/05 01:21:38;;;;;;;16.45;10.90;;;;;;;7.81;72.58;96592.94;4902346;29;20063;-83
2021/03/05 01:24:06;;;;;;;12.88;10.32;;;;;;;7.78;72.24;96595.03;4908406;29;20144;-81
2021/03/05 01:26:33;;;;;;;12.75;10.35;;;;;;;7.74;72.33;96599.75;4909512;29;20056;-80
2021/03/05 01:28:59;;;;;;;11.88;8.80;;;;;;;7.71;72.85;96596.66;4909418;29;20052;-81
2021/03/05 01:31:27;;;;;;;11.70;9.00;;;;;;;7.66;72.71;96602.34;4908600;29;20076;-80
2021/03/05 01:36:35;;;;;;;10.88;8.52;;;;;;;7.63;72.46;96597.47;4877513;29;20071;-79
2021/03/05 01:39:02;;;;;;;10.30;7.63;;;;;;;7.62;72.17;96595.88;4879284;29;20045;-79
2021/03/05 01:41:28;;;;;;;10.60;8.32;;;;;;;7.61;72.55;96596.84;4883055;29;20053;-79
2021/03/05 01:43:55;;;;;;;7.97;7.05;;;;;;;7.58;71.79;96589.38;4894075;29;20053;-79
2021/03/05 01:46:23;;;;;;;8.13;6.40;;;;;;;7.53;71.79;96597.66;4909165;29;20461;-79
2021/03/05 01:48:51;;;;;;;9.10;6.60;;;;;;;7.48;71.72;96601.69;4907456;29;20144;-79
2021/03/05 01:51:20;;;;;;;7.88;6.60;;;;;;;7.45;71.73;96604.63;4909033;29;20063;-79
2021/03/05 01:53:48;;;;;;;8.65;7.03;;;;;;;7.40;71.39;96603.31;4905387;29;20048;-79
2021/03/05 01:56:31;;;;;;;9.98;7.25;;;;;;;7.34;72.16;96611.75;4899953;29;20048;-79
2021/03/05 01:58:58;;;;;;;9.13;7.78;;;;;;;7.31;72.00;96606.09;4898293;29;20067;-79
2021/03/05 02:01:25;;;;;;;8.77;7.40;;;;;;;7.29;71.66;96595.84;4897895;29;20055;-79
2021/03/05 02:03:53;;;;;;;9.35;6.78;;;;;;;7.26;71.84;96605.75;4897614;29;20048;-79
2021/03/05 02:06:20;;;;;;;9.35;7.95;;;;;;;7.24;72.05;96605.91;4897593;29;20417;-79
2021/03/05 02:08:47;;;;;;;10.55;8.13;;;;;;;7.22;71.83;96610.44;4909333;29;20055;-79
2021/03/05 02:11:14;;;;;;;10.30;8.10;;;;;;;7.19;71.84;96600.38;4911153;29;20548;-78
2021/03/05 02:13:41;;;;;;;10.57;8.80;;;;;;;7.16;71.91;96605.91;4913156;29;20112;-78
2021/03/05 02:16:17;;;;;;;11.88;9.07;;;;;;;7.13;72.28;96608.81;4903230;29;20078;-79
2021/03/05 02:18:52;;;;;;;11.40;8.80;;;;;;;7.07;72.18;96617.25;4899965;29;20057;-79
2021/03/05 02:24:30;;;;;;;12.13;9.93;;;;;;;7.03;72.92;96623.72;5089807;27;20733;-80
2021/03/05 02:27:31;;;;;;;11.70;9.60;;;;;;;7.01;72.82;96614.28;5090110;28;20434;-80
2021/03/05 02:30:31;;;;;;;12.48;9.98;;;;;;;6.99;72.91;96626.59;5089707;28;20059;-79
2021/03/05 02:33:03;;;;;;;14.20;10.70;;;;;;;6.94;72.68;96628.88;5089935;28;20048;-79
2021/03/05 02:35:33;;;;;;;13.95;11.10;;;;;;;6.89;72.57;96631.13;5089587;28;20049;-80
2021/03/05 02:38:03;;;;;;;14.60;11.02;;;;;;;6.85;72.99;96640.19;5088717;28;20048;-80
2021/03/05 02:40:33;;;;;;;12.50;10.32;;;;;;;6.82;72.97;96643.09;5089615;28;20050;-79
2021/03/05 02:43:03;;;;;;;14.45;11.07;;;;;;;6.78;72.81;96645.19;5089411;28;20548;-80
2021/03/05 02:45:34;;;;;;;12.70;9.30;;;;;;;6.75;73.09;96649.88;5088662;28;20045;-80
2021/03/05 02:48:06;;;;;;;11.38;9.38;;;;;;;6.72;73.09;96663.16;5089738;28;20078;-79
2021/03/05 02:50:34;;;;;;;8.27;7.22;;;;;;;6.67;72.69;96655.00;5089963;28;20052;-80
2021/03/05 02:53:04;;;;;;;7.93;6.70;;;;;;;6.63;73.14;96653.72;5089522;28;20139;-80
2021/03/05 02:55:33;;;;;;;6.68;5.82;;;;;;;6.59;72.60;96661.78;5089589;28;20048;-79
2021/03/05 02:58:02;;;;;;;6.35;5.03;;;;;;;6.54;72.13;96658.88;5089551;28;20060;-80
2021/03/05 03:00:30;;;;;;;6.13;4.93;;;;;;;6.49;72.26;96663.69;5089136;28;20052;-80
2021/03/05 03:02:57;;;;;;;5.13;4.60;;;;;;;6.46;71.73;96669.19;5089257;28;20045;-80
2021/03/05 03:05:27;;;;;;;5.18;4.35;;;;;;;6.42;71.75;96670.44;5089260;28;20127;-79
2021/03/05 03:07:56;;;;;;;4.80;4.10;;;;;;;6.39;71.57;96666.41;5089271;28;20045;-79
2021/03/05 03:10:26;;;;;;;4.32;3.83;;;;;;;6.39;71.43;96675.97;5089024;28;20048;-80
2021/03/05 03:12:55;;;;;;;4.75;4.25;;;;;;;6.35;71.50;96674.63;5089171;28;20055;-79
2021/03/05 03:15:26;;;;;;;4.57;4.00;;;;;;;6.31;71.44;96683.66;5088968;28;20063;-80
2021/03/05 03:17:54;;;;;;;4.30;3.70;;;;;;;6.29;70.89;96685.59;5089132;28;20542;-80
2021/03/05 03:20:22;;;;;;;4.80;4.05;;;;;;;6.26;71.30;96693.69;5088825;28;20044;-80
2021/03/05 03:22:50;;;;;;;4.72;3.97;;;;;;;6.17;70.62;96691.03;5088871;28;20045;-80
2021/03/05 03:25:18;;;;;;;4.82;4.32;;;;;;;6.09;70.35;96693.56;5088944;28;20048;-80
2021/03/05 03:27:45;;;;;;;4.75;4.25;;;;;;;6.02;70.77;96705.50;5087234;28;20037;-79
2021/03/05 03:30:14;;;;;;;4.93;4.38;;;;;;;5.95;70.40;96707.06;5088428;28;20047;-80
2021/03/05 03:32:41;;;;;;;4.85;4.35;;;;;;;5.91;70.67;96708.28;5088297;28;20094;-79
2021/03/05 03:35:11;;;;;;;4.90;4.40;;;;;;;5.86;70.28;96715.69;5077240;28;20052;-80
2021/03/05 03:37:39;;;;;;;4.93;4.40;;;;;;;5.78;70.03;96722.41;5075221;28;20045;-80
2021/03/05 03:40:08;;;;;;;4.10;3.70;;;;;;;5.72;69.97;96725.59;5075117;28;20055;-80
2021/03/05 03:42:34;;;;;;;4.38;3.70;;;;;;;5.67;70.18;96734.78;5075213;28;20044;-80
2021/03/05 03:45:03;;;;;;;4.28;3.88;;;;;;;5.62;70.31;96724.88;5078437;28;20055;-80
2021/03/05 03:47:31;;;;;;;4.43;4.00;;;;;;;5.57;70.23;96740.00;5096173;28;20059;-79
2021/03/05 03:50:00;;;;;;;4.43;3.88;;;;;;;5.53;70.66;96736.91;5094365;28;20052;-80
2021/03/05 03:52:33;;;;;;;4.38;3.97;;;;;;;5.49;70.28;96737.38;5083471;28;20101;-80
2021/03/05 03:55:01;;;;;;;5.07;3.97;;;;;;;5.46;70.89;96740.22;5074220;28;20063;-80
2021/03/05 03:57:30;;;;;;;5.90;3.90;;;;;;;5.43;71.14;96741.34;5075249;28;20419;-80
2021/03/05 03:59:58;;;;;;;4.20;3.80;;;;;;;5.44;70.88;96736.97;5074805;28;20427;-80
2021/03/05 04:02:28;;;;;;;4.40;3.85;;;;;;;5.45;71.19;96742.00;5074910;28;20045;-80
2021/03/05 04:05:00;;;;;;;4.68;3.72;;;;;;;5.44;70.61;96749.91;5074744;28;20068;-80
2021/03/05 04:07:27;;;;;;;5.28;4.38;;;;;;;5.41;70.68;96748.44;5075029;28;20131;-79
2021/03/05 04:09:55;;;;;;;4.55;4.10;;;;;;;5.38;70.72;96751.31;5074615;28;20407;-80
2021/03/05 04:12:26;;;;;;;5.63;4.85;;;;;;;5.33;70.60;96767.25;5074815;28;20049;-80
2021/03/05 04:14:55;;;;;;;5.18;4.57;;;;;;;5.29;71.12;96771.09;5074776;28;20060;-80
2021/03/05 04:17:22;;;;;;;5.28;4.22;;;;;;;5.27;71.09;96767.84;5074712;28;20423;-80
2021/03/05 04:19:49;;;;;;;5.32;4.68;;;;;;;5.26;71.63;96767.97;5074485;28;20051;-80
2021/03/05 04:22:18;;;;;;;7.45;5.07;;;;;;;5.27;71.68;96775.59;5074972;28;20052;-79
2021/03/05 04:24:44;;;;;;;6.35;5.22;;;;;;;5.27;71.33;96767.00;5074489;28;20446;-80
2021/03/05 04:27:12;;;;;;;6.18;5.25;;;;;;;5.25;71.13;96774.94;5074524;28;20526;-80
2021/03/05 04:29:39;;;;;;;5.75;4.93;;;;;;;5.25;71.45;96774.94;5074414;28;20053;-80
2021/03/05 04:32:06;;;;;;;5.32;4.38;;;;;;;5.20;70.83;96777.13;5074598;28;20083;-80
2021/03/05 04:34:34;;;;;;;3.78;3.08;;;;;;;5.11;70.30;96775.41;5074584;28;20052;-80
2021/03/05 04:37:01;;;;;;;2.65;2.42;;;;;;;5.00;70.05;96780.75;5074351;28;20434;-80
2021/03/05 04:39:27;;;;;;;3.95;3.22;;;;;;;4.91;70.02;96783.22;5074051;28;20048;-79
2021/03/05 04:41:55;;;;;;;3.22;2.92;;;;;;;4.81;69.86;96792.81;5074543;28;20056;-80
2021/03/05 04:44:21;;;;;;;3.45;2.95;;;;;;;4.71;69.60;96787.66;5073921;28;20041;-80
2021/03/05 04:46:48;;;;;;;2.85;2.55;;;;;;;4.67;70.19;96786.28;5073555;28;20048;-80
2021/03/05 04:49:16;;;;;;;2.97;2.70;;;;;;;4.64;69.70;96778.03;5074083;28;20507;-79
2021/03/05 04:51:43;;;;;;;3.83;3.20;;;;;;;4.58;69.68;96789.72;5074085;28;20059;-80
2021/03/05 04:54:09;;;;;;;3.20;2.83;;;;;;;4.52;69.88;96788.50;5078243;28;20048;-80
2021/03/05 04:56:36;;;;;;;3.30;2.90;;;;;;;4.45;69.74;96797.78;5080732;28;20052;-80
2021/03/05 04:59:03;;;;;;;3.08;2.78;;;;;;;4.34;69.66;96798.72;5080297;28;20056;-80
2021/03/05 05:01:30;;;;;;;3.75;3.08;;;;;;;4.25;69.65;96801.34;5079308;28;20111;-80
2021/03/05 05:03:57;;;;;;;4.75;3.70;;;;;;;4.22;70.21;96802.44;5075098;28;20048;-80
2021/03/05 05:06:24;;;;;;;4.72;4.00;;;;;;;4.19;70.39;96807.84;5073803;28;20063;-80
2021/03/05 05:08:51;;;;;;;4.22;3.17;;;;;;;4.17;70.38;96798.63;5074195;28;20048;-80
2021/03/05 05:11:17;;;;;;;4.18;3.42;;;;;;;4.11;70.92;96795.63;5075062;28;20045;-80
2021/03/05 05:13:45;;;;;;;4.43;3.22;;;;;;;4.12;71.12;96807.59;5073559;28;20514;-80
2021/03/05 05:16:12;;;;;;;3.70;3.10;;;;;;;4.09;70.95;96807.88;5079772;28;20422;-80
2021/03/05 05:18:38;;;;;;;4.20;3.80;;;;;;;4.08;71.13;96808.81;5076659;28;20060;-80
2021/03/05 05:21:05;;;;;;;4.68;3.60;;;;;;;4.05;70.98;96813.44;5075493;28;20045;-80
2021/03/05 05:23:33;;;;;;;4.43;3.20;;;;;;;4.00;71.30;96813.84;5073383;28;20044;-80
2021/03/05 05:25:59;;;;;;;3.90;3.20;;;;;;;3.96;71.45;96820.22;5073447;28;20053;-80
2021/03/05 05:28:26;;;;;;;5.65;3.92;;;;;;;3.92;71.59;96817.09;5073215;28;20052;-80
2021/03/05 05:30:53;;;;;;;6.93;4.10;;;;;;;3.92;71.61;96818.88;5072864;28;20044;-80
2021/03/05 05:33:20;;;;;;;4.85;3.75;;;;;;;3.92;71.68;96827.41;5072933;28;20051;-80
2021/03/05 05:35:47;;;;;;;5.75;3.53;;;;;;;3.95;72.23;96825.50;5073312;28;20103;-80
2021/03/05 05:38:14;;;;;;;5.13;3.97;;;;;;;3.96;71.38;96827.97;5073523;28;20064;-80
2021/03/05 05:40:42;;;;;;;5.60;4.43;;;;;;;3.98;71.67;96831.22;5073537;28;20048;-80
2021/03/05 05:43:09;;;;;;;5.35;4.35;;;;;;;4.00;71.52;96834.50;5073250;28;20059;-80
2021/03/05 05:45:36;;;;;;;5.85;4.55;;;;;;;3.99;71.37;96835.44;5073200;28;20055;-80
2021/03/05 05:48:04;;;;;;;5.22;4.72;;;;;;;3.98;71.30;96835.56;5072967;28;20058;-80
2021/03/05 05:50:32;;;;;;;5.93;4.82;;;;;;;4.01;71.52;96845.63;5073074;28;20041;-80
2021/03/05 05:52:58;;;;;;;6.78;4.65;;;;;;;4.03;71.36;96838.56;5073163;28;20044;-80
2021/03/05 05:55:25;;;;;;;5.18;4.15;;;;;;;4.02;70.87;96837.72;5073120;28;20053;-80
2021/03/05 05:57:53;;;;;;;7.30;5.00;;;;;;;4.01;70.62;96843.06;5073144;28;20223;-80
2021/03/05 06:00:21;;;;;;;6.63;4.80;;;;;;;4.00;70.99;96847.41;5073375;28;20134;-79
2021/03/05 06:02:49;;;;;;;6.68;4.78;;;;;;;3.98;70.90;96851.88;5072960;28;20121;-79
2021/03/05 06:05:16;;;;;;;5.55;4.20;;;;;;;3.98;70.92;96851.88;5073144;28;20418;-80
2021/03/05 06:07:43;;;;;;;5.90;4.32;;;;;;;3.98;70.49;96857.03;5073028;28;20048;-80
2021/03/05 06:10:12;;;;;;;5.63;4.15;;;;;;;3.95;70.57;96862.47;5073816;28;20056;-80
2021/03/05 06:12:47;;;;;;;6.28;4.68;;;;;;;3.96;70.91;96864.09;5073636;28;20127;-80
2021/03/05 06:18:30;;;;;;;7.85;4.72;;;;;;;3.98;71.34;96867.38;5214208;23;20049;-81
2021/03/05 06:20:58;;;;;;;7.80;5.47;;;;;;;3.99;70.85;96874.16;5053931;28;20201;-80
2021/03/05 06:23:25;;;;;;;5.68;4.65;;;;;;;4.00;70.85;96873.22;5054326;28;20080;-80
2021/03/05 06:58:59;;;;;;;8.15;5.88;;;;;;;3.98;70.43;96919.00;5758300;23;20050;-81
2021/03/05 07:01:27;;;;;;;8.35;5.93;;;;;;;3.97;70.61;96919.13;5007167;28;20070;-82
2021/03/05 07:04:05;;;;;;;10.60;6.50;;;;;;;3.96;70.99;96936.38;5002846;28;20046;-78
2021/03/05 07:06:32;;;;;;;8.55;6.22;;;;;;;4.02;71.45;96935.81;5011761;28;20049;-81
2021/03/05 07:08:59;;;;;;;8.73;5.90;;;;;;;4.07;71.21;96933.69;5014992;28;20069;-80
2021/03/05 07:11:35;;;;;;;9.55;5.90;;;;;;;4.09;70.62;96942.09;5018162;28;20045;-80
2021/03/05 07:14:03;;;;;;;11.20;5.85;;;;;;;4.11;70.37;96947.97;4999858;28;20077;-80
2021/03/05 07:16:41;;;;;;;7.63;5.28;;;;;;;4.13;70.38;96953.81;5006315;28;20048;-81
2021/03/05 07:19:09;;;;;;;8.20;5.85;;;;;;;4.12;70.20;96957.31;5020668;28;20046;-81
2021/03/05 07:21:39;;;;;;;10.32;6.82;;;;;;;4.10;69.93;96958.41;5020137;28;20042;-80
2021/03/05 07:24:09;;;;;;;9.35;6.20;;;;;;;4.07;70.14;96958.69;5019087;28;20697;-81
2021/03/05 07:26:43;;;;;;;9.57;6.32;;;;;;;4.06;70.14;96962.19;5019492;28;20054;-81
2021/03/05 07:29:18;;;;;;;9.02;6.18;;;;;;;4.07;70.54;96963.84;5019870;28;20089;-80
2021/03/05 07:31:45;;;;;;;9.52;6.20;;;;;;;4.06;70.45;96972.53;5020547;28;20085;-81
2021/03/05 07:34:17;;;;;;;11.02;6.72;;;;;;;4.07;70.49;96976.75;5020116;28;20084;-80
2021/03/05 07:36:50;;;;;;;11.13;7.88;;;;;;;4.06;70.36;96990.59;5019373;28;20128;-80
2021/03/05 07:39:23;;;;;;;10.30;6.95;;;;;;;4.05;70.48;96987.19;5019746;28;20471;-81
2021/03/05 07:41:53;;;;;;;9.93;6.50;;;;;;;4.08;70.79;96986.13;5024805;28;20042;-81
2021/03/05 07:44:21;;;;;;;9.75;6.75;;;;;;;4.10;70.80;96990.19;5039531;28;20030;-81
2021/03/05 07:46:48;;;;;;;11.57;7.45;;;;;;;4.10;70.62;96995.34;5039399;28;20081;-82
2021/03/05 07:49:17;;;;;;;9.27;6.85;;;;;;;4.11;70.59;96991.00;5030122;28;20052;-80
2021/03/05 07:51:44;;;;;;;10.43;7.35;;;;;;;4.11;70.86;96997.00;5019526;28;20050;-81
2021/03/05 08:00:56;;;;;;;10.00;6.72;;;;;;;4.15;70.49;97004.47;5011245;23;20061;-81
2021/03/05 08:05:56;;;;;;;12.18;7.95;;;;;;;4.18;70.25;97006.81;4943561;29;20052;-81
2021/03/05 08:08:24;;;;;;;10.48;7.57;;;;;;;4.20;70.38;97010.06;4944999;29;20063;-79
2021/03/05 08:10:56;;;;;;;13.30;8.90;;;;;;;4.21;70.39;97012.53;4927272;29;20068;-83
2021/03/05 08:13:48;;;;;;;12.93;7.60;;;;;;;4.23;70.64;97014.97;4926482;29;20048;-84
2021/03/05 08:16:46;;;;;;;10.25;6.72;;;;;;;4.23;71.03;97022.72;4926221;29;20051;-80
2021/03/05 08:19:46;;;;;;;10.13;6.78;;;;;;;4.29;70.29;97033.34;4925583;29;20138;-83
2021/03/05 08:22:19;;;;;;;10.60;7.15;;;;;;;4.31;70.11;97043.56;4942917;29;20570;-80
2021/03/05 08:24:46;;;;;;;10.50;6.97;;;;;;;4.33;70.15;97049.41;4943861;29;20055;-80
2021/03/05 08:27:19;;;;;;;11.48;7.43;;;;;;;4.33;70.14;97046.81;4946888;29;20062;-81
2021/03/05 08:29:56;;;;;;;14.90;8.57;;;;;;;4.34;70.06;97044.09;4946281;29;20430;-81
2021/03/05 08:32:44;;;;;;;10.60;7.28;;;;;;;4.39;69.83;97043.69;4947139;29;20083;-86
2021/03/05 08:35:13;;;;;;;12.05;7.50;;;;;;;4.38;69.19;97046.41;4948414;29;20062;-83
2021/03/05 08:37:41;;;;;;;13.13;7.63;;;;;;;4.35;69.42;97055.22;4947685;29;20365;-87
2021/03/05 08:40:25;;;;;;;12.50;7.25;;;;;;;4.33;69.23;97059.72;4947536;29;20044;-84
2021/03/05 08:42:53;;;;;;;11.10;6.82;;;;;;;4.32;69.27;97055.50;4929211;29;20044;-80
2021/03/05 08:45:27;;;;;;;11.38;7.30;;;;;;;4.32;70.07;97058.09;4933567;29;20117;-86
2021/03/05 08:47:56;;;;;;;11.07;7.25;;;;;;;4.35;69.85;97055.22;4948538;29;20051;-85
2021/03/05 08:50:29;;;;;;;9.80;7.10;;;;;;;4.38;69.26;97062.72;4945734;29;20044;-82
2021/03/05 08:52:56;;;;;;;13.20;7.85;;;;;;;4.40;69.50;97058.25;4934782;29;20063;-84
2021/03/05 08:55:23;;;;;;;10.35;6.88;;;;;;;4.44;69.17;97058.78;4949677;29;20063;-83
2021/03/05 08:57:52;;;;;;;11.23;7.80;;;;;;;4.44;69.02;97069.13;4934932;29;20071;-85
2021/03/05 09:00:22;;;;;;;12.18;7.57;;;;;;;4.43;68.72;97072.66;4929664;29;20148;-82
2021/03/05 09:02:50;;;;;;;11.57;7.30;;;;;;;4.44;68.77;97071.69;4929563;29;20056;-83
2021/03/05 09:05:26;;;;;;;10.93;7.28;;;;;;;4.45;68.70;97070.78;4928852;29;20135;-84
2021/03/05 09:07:54;;;;;;;10.98;7.70;;;;;;;4.46;69.03;97073.22;4928492;29;20052;-86
2021/03/05 09:10:22;;;;;;;9.32;6.38;;;;;;;4.45;68.35;97070.78;4928708;29;20504;-80
2021/03/05 09:12:57;;;;;;;10.68;7.10;;;;;;;4.42;68.22;97076.22;4928095;29;20058;-81
2021/03/05 09:15:28;;;;;;;10.38;7.15;;;;;;;4.41;68.39;97070.19;4927972;29;20058;-84
2021/03/05 09:17:57;;;;;;;12.05;7.63;;;;;;;4.41;68.76;97074.56;4936177;29;20052;-85
2021/03/05 09:20:35;;;;;;;11.32;7.28;;;;;;;4.43;68.33;97080.41;4943778;29;20155;-86
2021/03/05 09:23:21;;;;;;;12.32;8.15;;;;;;;4.45;68.76;97076.75;4928968;29;20079;-82
2021/03/05 09:25:53;;;;;;;12.00;7.53;;;;;;;4.47;68.60;97087.75;4928855;29;20067;-84
2021/03/05 09:28:21;;;;;;;12.98;6.90;;;;;;;4.50;68.42;97091.84;4932971;29;20047;-81
2021/03/05 09:30:50;;;;;;;11.32;7.38;;;;;;;4.52;68.26;97087.38;4933434;29;20452;-86
2021/03/05 09:33:17;;;;;;;10.95;7.18;;;;;;;4.53;67.80;97089.03;4929110;29;20088;-88
2021/03/05 09:35:45;;;;;;;10.70;6.95;;;;;;;4.57;68.51;97089.56;4928942;29;20067;-82
2021/03/05 09:38:17;;;;;;;10.80;7.68;;;;;;;4.60;67.88;97099.66;4943485;29;20063;-85
2021/03/05 09:40:44;;;;;;;13.90;6.82;;;;;;;4.61;67.61;97102.06;4926759;29;20052;-83
2021/03/05 09:43:14;;;;;;;14.40;7.72;;;;;;;4.63;67.48;97104.53;4927690;29;20055;-81
2021/03/05 09:45:43;;;;;;;10.70;7.55;;;;;;;4.65;67.98;97105.22;4923658;29;20178;-83
2021/03/05 09:48:11;;;;;;;10.77;7.82;;;;;;;4.63;68.21;97110.50;4925321;29;20056;-82
2021/03/05 09:50:39;;;;;;;11.32;7.60;;;;;;;4.61;68.23;97111.59;4927790;29;20518;-86
2021/03/05 09:53:25;;;;;;;10.75;7.70;;;;;;;4.57;69.11;97115.38;4927088;29;20056;-88
2021/03/05 09:55:54;;;;;;;10.15;7.00;;;;;;;4.54;68.53;97112.13;4927972;29;20055;-85
2021/03/05 09:58:21;;;;;;;12.27;8.00;;;;;;;4.53;68.51;97113.09;4935078;29;20570;-85
2021/03/05 10:00:48;;;;;;;12.63;7.45;;;;;;;4.52;69.27;97114.00;4933614;29;20052;-83
2021/03/05 10:03:16;;;;;;;11.93;8.35;;;;;;;4.53;69.55;97110.50;4927649;29;20052;-84
2021/03/05 10:05:45;;;;;;;13.15;7.82;;;;;;;4.58;69.76;97111.88;4945230;29;20057;-83
2021/03/05 10:08:13;;;;;;;12.18;8.48;;;;;;;4.64;69.80;97113.94;4945081;29;20062;-84
2021/03/05 10:11:01;;;;;;;12.60;8.35;;;;;;;4.68;69.59;97115.28;4944065;29;20135;-83
2021/03/05 10:13:48;;;;;;;12.70;8.32;;;;;;;4.70;69.34;97114.22;4945514;29;20058;-84
2021/03/05 10:16:29;;;;;;;12.85;8.20;;;;;;;4.72;69.51;97120.09;4937860;29;20056;-83
2021/03/05 10:19:00;;;;;;;11.43;7.93;;;;;;;4.75;69.05;97124.16;4944059;29;20056;-81
2021/03/05 10:21:27;;;;;;;12.90;8.23;;;;;;;4.77;68.87;97127.44;4931769;29;20056;-82
2021/03/05 10:23:54;;;;;;;11.95;7.70;;;;;;;4.80;69.53;97126.34;4929716;29;20070;-83
2021/03/05 10:26:24;;;;;;;11.23;8.20;;;;;;;4.82;69.68;97124.44;4925672;29;20052;-84
2021/03/05 10:28:56;;;;;;;11.77;8.23;;;;;;;4.82;69.34;97133.00;4926535;29;20092;-82
2021/03/05 10:31:48;;;;;;;12.93;8.63;;;;;;;4.81;69.57;97136.56;4932083;29;20044;-83
2021/03/05 10:34:26;;;;;;;14.68;9.52;;;;;;;4.80;69.21;97142.66;4925165;29;20048;-81
2021/03/05 10:36:55;;;;;;;13.95;8.35;;;;;;;4.81;69.04;97143.47;4926059;29;20056;-82
2021/03/05 10:39:22;;;;;;;12.70;8.35;;;;;;;4.81;68.91;97144.31;4924115;29;20566;-85
2021/03/05 10:41:54;;;;;;;15.35;9.35;;;;;;;4.83;68.69;97145.00;4926560;29;20076;-84
2021/03/05 10:44:21;;;;;;;13.50;8.97;;;;;;;4.83;68.83;97142.41;4934574;29;20047;-85
2021/03/05 10:46:48;;;;;;;14.68;9.55;;;;;;;4.85;68.89;97145.66;4947250;29;20047;-82
2021/03/05 10:49:15;;;;;;;13.95;9.10;;;;;;;4.88;68.77;97149.78;4947803;29;20084;-81
2021/03/05 10:51:41;;;;;;;15.18;10.25;;;;;;;4.89;68.70;97148.81;4934948;29;20060;-83
2021/03/05 10:54:08;;;;;;;14.77;9.15;;;;;;;4.94;68.78;97150.06;4929565;29;20412;-84
2021/03/05 10:56:35;;;;;;;16.02;9.18;;;;;;;4.98;68.97;97152.38;4929077;29;20503;-86
2021/03/05 10:59:03;;;;;;;13.43;9.63;;;;;;;4.99;68.74;97154.03;4930248;29;20058;-85
2021/03/05 11:01:29;;;;;;;16.27;9.38;;;;;;;5.02;68.41;97156.31;4930939;29;20062;-85
2021/03/05 11:03:56;;;;;;;14.23;8.55;;;;;;;5.02;68.42;97158.91;4941098;29;20150;-81
2021/03/05 11:06:23;;;;;;;14.02;8.43;;;;;;;5.03;68.30;97156.19;4950757;29;20082;-82
2021/03/05 11:08:49;;;;;;;14.35;9.25;;;;;;;5.05;68.78;97166.38;4947815;29;20043;-82
2021/03/05 11:11:16;;;;;;;15.57;9.25;;;;;;;5.07;68.95;97164.50;4948843;29;20056;-82
2021/03/05 11:13:51;;;;;;;13.32;9.00;;;;;;;5.09;68.48;97167.75;4950002;29;20054;-82
2021/03/05 11:16:19;;;;;;;13.15;8.73;;;;;;;5.08;68.38;97176.50;4951171;29;20054;-82
2021/03/05 11:18:46;;;;;;;12.63;8.52;;;;;;;5.09;68.28;97172.94;4948373;29;20055;-84
2021/03/05 11:21:12;;;;;;;13.35;8.43;;;;;;;5.07;67.66;97170.50;4938603;29;20063;-84
2021/03/05 11:23:39;;;;;;;12.57;8.73;;;;;;;5.05;67.82;97171.56;4927924;29;20056;-84
2021/03/05 11:26:05;;;;;;;11.50;8.60;;;;;;;5.04;68.13;97181.09;4928012;29;20056;-83
2021/03/05 11:28:32;;;;;;;13.48;9.82;;;;;;;5.04;67.63;97180.28;4927188;29;20060;-81
2021/03/05 11:30:59;;;;;;;11.00;7.30;;;;;;;5.02;67.97;97177.00;4926642;29;20060;-80
2021/03/05 11:33:27;;;;;;;12.82;8.10;;;;;;;5.05;67.92;97182.75;4926709;29;20058;-82
2021/03/05 11:35:54;;;;;;;10.75;7.88;;;;;;;5.05;67.39;97187.06;4932032;29;20127;-87
2021/03/05 11:38:20;;;;;;;11.52;8.00;;;;;;;5.04;66.92;97185.47;4927104;29;20048;-83
2021/03/05 11:40:47;;;;;;;12.98;8.88;;;;;;;5.07;66.97;97187.75;4927752;29;20060;-79
2021/03/05 11:43:14;;;;;;;10.82;8.27;;;;;;;5.09;66.78;97186.69;4927090;29;20052;-81
2021/03/05 11:45:40;;;;;;;11.70;8.45;;;;;;;5.11;67.02;97191.72;4926902;29;20052;-83
2021/03/05 11:48:08;;;;;;;13.00;8.43;;;;;;;5.13;66.49;97189.81;4927313;29;20059;-81
2021/03/05 11:50:36;;;;;;;13.95;8.90;;;;;;;5.14;66.27;97191.47;4932195;29;20048;-79
2021/03/05 11:53:02;;;;;;;13.18;8.60;;;;;;;5.14;66.44;97187.13;4945237;29;20048;-80
2021/03/05 11:55:32;;;;;;;11.43;7.85;;;;;;;5.17;66.61;97198.97;4945408;29;20101;-81
2021/03/05 11:58:01;;;;;;;12.95;8.10;;;;;;;5.19;66.33;97188.50;4934240;29;20063;-79
2021/03/05 12:00:28;;;;;;;12.55;8.57;;;;;;;5.22;66.45;97199.38;4926179;29;20063;-82
2021/03/05 12:02:56;;;;;;;16.15;9.38;;;;;;;5.21;66.12;97187.41;4931366;29;20051;-78
2021/03/05 12:05:24;;;;;;;13.18;7.97;;;;;;;5.22;65.59;97194.19;4931818;29;20059;-79
2021/03/05 12:07:51;;;;;;;13.52;8.82;;;;;;;5.24;65.96;97192.28;4925949;29;20075;-80
2021/03/05 12:10:18;;;;;;;14.40;9.23;;;;;;;5.26;65.96;97185.22;4926534;29;20075;-83
2021/03/05 12:12:44;;;;;;;12.40;8.45;;;;;;;5.29;65.78;97189.31;4926895;29;20066;-82
2021/03/05 12:15:12;;;;;;;14.43;9.32;;;;;;;5.31;65.91;97190.00;4926618;29;20056;-80
2021/03/05 12:17:39;;;;;;;11.23;8.30;;;;;;;5.33;66.31;97191.47;4927725;29;20135;-81
2021/03/05 12:20:06;;;;;;;13.88;8.95;;;;;;;5.36;65.95;97195.59;4929156;29;20048;-81
2021/03/05 12:22:33;;;;;;;13.88;8.40;;;;;;;5.35;66.00;97184.41;4939857;29;20133;-80
2021/03/05 12:25:01;;;;;;;14.75;8.20;;;;;;;5.35;65.58;97189.59;4947157;29;20422;-83
2021/03/05 12:27:27;;;;;;;12.23;8.25;;;;;;;5.36;65.66;97190.41;4945803;29;20075;-83
2021/03/05 12:29:54;;;;;;;13.18;8.13;;;;;;;5.35;65.33;97193.94;4927611;29;20062;-83
2021/03/05 12:32:20;;;;;;;11.45;8.18;;;;;;;5.36;65.32;97186.06;4928623;29;20052;-87
2021/03/05 12:34:47;;;;;;;12.35;7.88;;;;;;;5.36;65.65;97190.41;4927690;29;20080;-83
2021/03/05 12:37:15;;;;;;;13.35;8.68;;;;;;;5.39;65.77;97195.31;4943235;29;20115;-84